createdAt,value
2018-10-11T00:01:16.598Z,99.90
2018-10-11T00:03:45.933Z,99.90
2018-10-11T00:06:15.187Z,99.90
2018-10-11T00:08:44.387Z,99.90
2018-10-11T00:11:13.622Z,99.90
2018-10-11T00:13:42.801Z,99.90
2018-10-11T00:16:11.942Z,99.90
2018-10-11T00:18:41.020Z,99.90
2018-10-11T00:21:10.434Z,99.90
2018-10-11T00:23:39.710Z,99.90
2018-10-11T00:26:09.374Z,99.90
2018-10-11T00:28:38.653Z,99.90
2018-10-11T00:31:07.842Z,99.90
2018-10-11T00:33:36.957Z,99.90
2018-10-11T00:36:06.122Z,99.90
2018-10-11T00:38:35.355Z,99.90
2018-10-11T00:41:04.482Z,99.90
2018-10-11T00:43:33.537Z,99.90
2018-10-11T00:46:02.787Z,99.90
2018-10-11T00:48:31.934Z,99.90
2018-10-11T00:51:01.925Z,99.90
2018-10-11T00:53:31.133Z,99.90
2018-10-11T00:56:00.246Z,99.90
2018-10-11T00:58:29.502Z,99.90
2018-10-11T01:00:58.706Z,99.90
2018-10-11T01:03:27.936Z,99.90
2018-10-11T01:05:57.025Z,99.90
2018-10-11T01:08:26.176Z,99.90
2018-10-11T01:10:55.370Z,99.90
2018-10-11T01:13:24.785Z,99.90
2018-10-11T01:15:54.786Z,99.90
2018-10-11T01:18:23.977Z,99.90
2018-10-11T01:20:53.050Z,99.90
2018-10-11T01:23:22.175Z,99.90
2018-10-11T01:25:51.254Z,99.90
2018-10-11T01:28:20.341Z,99.90
2018-10-11T01:30:54.546Z,99.90
2018-10-11T01:33:23.905Z,99.90
2018-10-11T01:35:53.112Z,99.90
2018-10-11T01:38:22.338Z,99.90
2018-10-11T01:40:51.538Z,99.90
2018-10-11T01:43:20.634Z,99.90
2018-10-11T01:45:49.922Z,99.90
2018-10-11T01:48:19.114Z,99.90
2018-10-11T01:50:48.602Z,99.90
2018-10-11T01:53:17.885Z,99.90
2018-10-11T01:55:46.995Z,99.90
2018-10-11T01:58:15.991Z,99.90
2018-10-11T02:00:45.129Z,99.90
2018-10-11T02:03:14.426Z,99.90
2018-10-11T02:05:43.756Z,99.90
2018-10-11T02:08:12.933Z,99.90
2018-10-11T02:10:42.163Z,99.90
2018-10-11T02:13:11.409Z,99.90
2018-10-11T02:15:40.618Z,99.90
2018-10-11T02:18:09.901Z,99.90
2018-10-11T02:20:39.149Z,99.90
2018-10-11T02:23:08.450Z,99.90
2018-10-11T02:25:38.254Z,99.90
2018-10-11T02:28:08.430Z,99.90
2018-10-11T02:30:37.591Z,99.90
2018-10-11T02:33:06.843Z,99.90
2018-10-11T02:35:36.035Z,99.90
2018-10-11T02:38:05.205Z,99.90
2018-10-11T02:40:34.405Z,99.90
2018-10-11T02:43:03.586Z,99.90
2018-10-11T02:45:32.867Z,99.90
2018-10-11T02:48:02.183Z,99.90
2018-10-11T02:50:31.327Z,99.90
2018-10-11T02:53:00.551Z,99.90
2018-10-11T02:55:29.803Z,99.90
2018-10-11T02:58:09.602Z,99.90
2018-10-11T03:00:38.868Z,99.90
2018-10-11T03:03:09.713Z,99.90
2018-10-11T03:05:41.686Z,99.90
2018-10-11T03:08:14.617Z,99.90
2018-10-11T03:10:44.530Z,99.90
2018-10-11T03:13:14.487Z,99.90
2018-10-11T03:15:44.273Z,99.90
2018-10-11T03:18:14.317Z,99.90
2018-10-11T03:20:44.618Z,99.90
2018-10-11T03:23:15.010Z,99.90
2018-10-11T03:25:45.273Z,99.90
2018-10-11T03:28:15.901Z,99.90
2018-10-11T03:30:45.196Z,99.90
2018-10-11T03:33:15.085Z,99.90
2018-10-11T03:35:44.906Z,99.90
2018-10-11T03:38:14.565Z,99.90
2018-10-11T03:40:43.901Z,99.90
2018-10-11T03:43:13.170Z,99.90
2018-10-11T03:45:42.450Z,99.90
2018-10-11T03:48:11.691Z,99.90
2018-10-11T03:50:40.904Z,99.90
2018-10-11T03:53:10.133Z,99.90
2018-10-11T03:55:39.351Z,99.90
2018-10-11T03:58:08.637Z,99.90
2018-10-11T04:00:38.006Z,99.90
2018-10-11T04:03:07.275Z,99.90
2018-10-11T04:05:36.334Z,99.90
2018-10-11T04:08:05.924Z,99.90
2018-10-11T04:10:35.117Z,99.90
2018-10-11T04:13:04.302Z,99.90
2018-10-11T04:15:33.733Z,99.90
2018-10-11T04:18:02.856Z,99.90
2018-10-11T04:20:32.014Z,99.90
2018-10-11T04:23:01.129Z,99.90
2018-10-11T04:25:30.344Z,99.90
2018-10-11T04:27:59.579Z,99.90
2018-10-11T04:30:28.769Z,99.90
2018-10-11T04:32:58.362Z,99.90
2018-10-11T04:35:27.892Z,99.90
2018-10-11T04:37:57.033Z,99.90
2018-10-11T04:40:26.265Z,99.90
2018-10-11T04:42:55.676Z,99.90
2018-10-11T04:45:24.865Z,99.90
2018-10-11T04:47:54.128Z,99.90
2018-10-11T04:50:23.289Z,99.90
2018-10-11T04:52:52.569Z,99.90
2018-10-11T04:55:21.711Z,99.90
2018-10-11T04:57:50.894Z,99.90
2018-10-11T05:00:20.094Z,99.90
2018-10-11T05:02:49.337Z,99.90
2018-10-11T05:05:18.504Z,99.90
2018-10-11T05:07:47.731Z,99.90
2018-10-11T05:10:16.907Z,99.90
2018-10-11T05:12:46.212Z,99.90
2018-10-11T05:15:15.493Z,99.90
2018-10-11T05:17:45.606Z,99.90
2018-10-11T05:20:15.429Z,99.90
2018-10-11T05:22:44.494Z,99.90
2018-10-11T05:25:13.779Z,99.90
2018-10-11T05:27:42.960Z,99.90
2018-10-11T05:30:12.106Z,99.90
2018-10-11T05:32:41.422Z,99.90
2018-10-11T05:35:10.606Z,99.90
2018-10-11T05:37:39.805Z,99.90
2018-10-11T05:40:09.155Z,99.90
2018-10-11T05:42:38.877Z,99.90
2018-10-11T05:45:13.623Z,99.90
2018-10-11T05:47:43.974Z,99.90
2018-10-11T05:50:13.793Z,99.90
2018-10-11T05:52:44.205Z,99.90
2018-10-11T05:55:14.002Z,99.90
2018-10-11T05:57:43.925Z,99.90
2018-10-11T06:00:13.320Z,99.90
2018-10-11T06:03:03.343Z,99.90
2018-10-11T06:05:33.655Z,99.90
2018-10-11T06:08:03.544Z,99.90
2018-10-11T06:10:33.710Z,99.90
2018-10-11T06:13:04.053Z,99.90
2018-10-11T06:15:33.374Z,99.90
2018-10-11T06:18:02.638Z,99.90
2018-10-11T06:20:32.011Z,99.90
2018-10-11T06:23:01.339Z,99.90
2018-10-11T06:25:30.554Z,99.90
2018-10-11T06:28:00.292Z,99.90
2018-10-11T06:30:31.122Z,99.90
2018-10-11T06:33:00.494Z,99.90
2018-10-11T06:35:29.821Z,99.90
2018-10-11T06:38:00.148Z,99.90
2018-10-11T06:40:29.966Z,99.90
2018-10-11T06:42:59.438Z,99.90
2018-10-11T06:45:28.860Z,99.90
2018-10-11T06:48:01.190Z,99.90
2018-10-11T06:50:30.528Z,99.90
2018-10-11T06:53:00.026Z,99.90
2018-10-11T06:55:29.262Z,99.90
2018-10-11T06:57:58.473Z,99.90
2018-10-11T07:00:27.673Z,99.90
2018-10-11T07:02:56.870Z,99.90
2018-10-11T07:05:25.966Z,99.90
2018-10-11T07:07:55.195Z,99.90
2018-10-11T07:10:24.529Z,99.90
2018-10-11T07:12:53.860Z,99.90
2018-10-11T07:15:23.089Z,99.90
2018-10-11T07:17:52.365Z,99.90
2018-10-11T07:20:21.654Z,99.90
2018-10-11T07:22:50.930Z,99.90
2018-10-11T07:25:20.278Z,99.90
2018-10-11T07:27:49.443Z,99.90
2018-10-11T07:30:18.775Z,99.90
2018-10-11T07:32:47.947Z,99.90
2018-10-11T07:35:17.231Z,99.90
2018-10-11T07:37:46.367Z,99.90
2018-10-11T07:40:15.584Z,99.90
2018-10-11T07:42:44.760Z,99.90
2018-10-11T07:45:13.966Z,99.90
2018-10-11T07:47:43.174Z,99.90
2018-10-11T07:50:12.480Z,99.90
2018-10-11T07:52:41.829Z,99.90
2018-10-11T07:55:11.044Z,99.90
2018-10-11T07:57:40.262Z,99.90
2018-10-11T08:00:11.999Z,99.90
2018-10-11T08:02:42.591Z,99.90
2018-10-11T08:05:11.816Z,99.90
2018-10-11T08:07:41.348Z,99.90
2018-10-11T08:10:10.378Z,99.90
2018-10-11T08:12:39.494Z,99.90
2018-10-11T08:15:08.659Z,99.90
2018-10-11T08:17:38.242Z,99.90
2018-10-11T08:20:07.251Z,99.90
2018-10-11T08:22:36.460Z,99.90
2018-10-11T08:25:06.027Z,99.90
2018-10-11T08:27:35.250Z,99.90
2018-10-11T08:30:04.607Z,99.90
2018-10-11T08:32:33.960Z,99.90
2018-10-11T08:35:03.325Z,99.90
2018-10-11T08:37:32.616Z,99.90
2018-10-11T08:40:02.026Z,99.90
2018-10-11T08:42:31.194Z,99.90
2018-10-11T08:45:00.354Z,99.90
2018-10-11T08:47:29.569Z,99.90
2018-10-11T08:49:58.718Z,99.90
2018-10-11T08:52:27.873Z,99.90
2018-10-11T08:54:57.125Z,99.90
2018-10-11T08:57:26.409Z,99.90
2018-10-11T08:59:55.679Z,99.90
2018-10-11T09:02:24.650Z,99.90
2018-10-11T09:04:54.396Z,99.90
2018-10-11T09:07:23.597Z,98.60
2018-10-11T09:09:53.686Z,97.50
2018-10-11T09:12:22.119Z,95.60
2018-10-11T09:14:51.383Z,94.20
2018-10-11T09:17:20.666Z,93.00
2018-10-11T09:19:49.873Z,91.00
2018-10-11T09:22:19.174Z,89.30
2018-10-11T09:24:48.653Z,86.20
2018-10-11T09:27:17.786Z,85.40
2018-10-11T09:29:46.935Z,83.50
2018-10-11T09:32:16.091Z,83.20
2018-10-11T09:34:45.285Z,82.80
2018-10-11T09:37:14.558Z,81.60
2018-10-11T09:39:43.719Z,82.00
2018-10-11T09:42:13.025Z,81.60
2018-10-11T09:44:42.072Z,83.00
2018-10-11T09:47:11.210Z,83.80
2018-10-11T09:49:40.443Z,82.80
2018-10-11T09:52:09.676Z,82.80
2018-10-11T09:54:39.048Z,82.40
2018-10-11T09:57:29.754Z,81.60
2018-10-11T09:59:59.607Z,79.40
2018-10-11T10:02:29.238Z,79.80
2018-10-11T10:04:59.602Z,78.40
2018-10-11T10:07:28.898Z,74.40
2018-10-11T10:09:58.287Z,70.90
2018-10-11T10:12:27.463Z,70.30
2018-10-11T10:14:56.662Z,68.80
2018-10-11T10:17:25.901Z,66.70
2018-10-11T10:19:55.093Z,64.70
2018-10-11T10:22:24.278Z,61.30
2018-10-11T10:24:53.539Z,58.80
2018-10-11T10:27:22.903Z,56.20
2018-10-11T10:29:52.017Z,54.30
2018-10-11T10:32:21.244Z,53.20
2018-10-11T10:34:50.528Z,51.40
2018-10-11T10:37:20.303Z,50.80
2018-10-11T10:39:49.571Z,50.20
2018-10-11T10:42:18.711Z,49.10
2018-10-11T10:44:47.796Z,48.40
2018-10-11T10:47:17.154Z,47.70
2018-10-11T10:49:46.398Z,46.60
2018-10-11T10:52:15.650Z,46.50
2018-10-11T10:54:44.845Z,45.40
2018-10-11T10:57:14.165Z,45.50
2018-10-11T10:59:43.516Z,45.70
2018-10-11T11:02:12.653Z,44.90
2018-10-11T11:04:41.982Z,45.00
2018-10-11T11:07:11.273Z,45.10
2018-10-11T11:09:40.475Z,43.90
2018-10-11T11:12:09.673Z,43.40
2018-10-11T11:14:38.833Z,43.40
2018-10-11T11:17:08.034Z,43.60
2018-10-11T11:19:37.374Z,43.50
2018-10-11T11:22:06.787Z,44.20
2018-10-11T11:24:36.038Z,43.50
2018-10-11T11:27:05.297Z,44.40
2018-10-11T11:29:34.525Z,43.90
2018-10-11T11:32:03.884Z,44.10
2018-10-11T11:34:33.170Z,43.70
2018-10-11T11:37:02.422Z,43.20
2018-10-11T11:39:31.679Z,43.20
2018-10-11T11:42:00.818Z,42.70
2018-10-11T11:44:29.978Z,42.80
2018-10-11T11:46:59.432Z,42.90
2018-10-11T11:49:28.650Z,42.20
2018-10-11T11:51:57.850Z,41.90
2018-10-11T11:54:26.951Z,42.40
2018-10-11T11:56:56.217Z,42.80
2018-10-11T11:59:25.409Z,44.00
2018-10-11T12:01:54.672Z,43.60
2018-10-11T12:04:23.833Z,44.40
2018-10-11T12:06:53.047Z,44.30
2018-10-11T12:09:22.249Z,44.80
2018-10-11T12:11:51.358Z,44.30
2018-10-11T12:14:20.571Z,44.60
2018-10-11T12:16:49.771Z,45.00
2018-10-11T12:19:19.033Z,44.80
2018-10-11T12:21:48.234Z,45.10
2018-10-11T12:24:17.426Z,45.10
2018-10-11T12:26:46.735Z,45.50
2018-10-11T12:29:15.930Z,45.00
2018-10-11T12:31:45.222Z,44.90
2018-10-11T12:34:14.415Z,45.20
2018-10-11T12:36:43.582Z,44.40
2018-10-11T12:39:12.783Z,44.40
2018-10-11T12:41:41.979Z,44.70
2018-10-11T12:44:11.248Z,44.10
2018-10-11T12:46:41.293Z,45.20
2018-10-11T12:49:09.651Z,44.50
2018-10-11T12:51:38.922Z,43.60
2018-10-11T12:54:08.222Z,43.90
2018-10-11T12:56:37.475Z,44.30
2018-10-11T12:59:06.562Z,45.00
2018-10-11T13:01:35.857Z,45.50
2018-10-11T13:04:05.146Z,45.40
2018-10-11T13:06:34.385Z,45.40
2018-10-11T13:09:04.078Z,46.30
2018-10-11T13:11:33.219Z,46.70
2018-10-11T13:14:02.426Z,47.60
2018-10-11T13:16:31.746Z,47.50
2018-10-11T13:19:00.893Z,47.90
2018-10-11T13:21:30.067Z,48.00
2018-10-11T13:23:59.238Z,47.80
2018-10-11T13:26:28.562Z,47.80
2018-10-11T13:28:57.858Z,48.40
2018-10-11T13:31:27.105Z,48.20
2018-10-11T13:33:56.330Z,47.50
2018-10-11T13:36:25.628Z,47.80
2018-10-11T13:38:54.890Z,47.40
2018-10-11T13:41:24.195Z,47.40
2018-10-11T13:43:53.462Z,47.60
2018-10-11T13:46:22.603Z,47.70
2018-10-11T13:48:51.826Z,47.00
2018-10-11T13:51:20.974Z,46.30
2018-10-11T13:53:55.480Z,46.60
2018-10-11T13:56:19.309Z,46.00
2018-10-11T13:58:48.630Z,46.20
2018-10-11T14:01:17.890Z,46.30
2018-10-11T14:03:47.606Z,46.10
2018-10-11T14:06:17.598Z,46.40
2018-10-11T14:08:46.784Z,46.40
2018-10-11T14:11:16.067Z,46.90
2018-10-11T14:13:45.175Z,47.20
2018-10-11T14:16:14.381Z,47.60
2018-10-11T14:18:43.599Z,47.20
2018-10-11T14:21:12.817Z,47.50
2018-10-11T14:23:42.161Z,47.40
2018-10-11T14:26:11.338Z,48.20
2018-10-11T14:28:40.488Z,48.50
2018-10-11T14:31:09.618Z,48.90
2018-10-11T14:33:38.778Z,50.10
2018-10-11T14:36:08.410Z,50.10
2018-10-11T14:38:37.585Z,50.60
2018-10-11T14:41:06.919Z,51.50
2018-10-11T14:43:36.190Z,51.20
2018-10-11T14:46:05.417Z,51.60
2018-10-11T14:48:34.648Z,51.60
2018-10-11T14:51:04.359Z,52.40
2018-10-11T14:53:33.574Z,52.30
2018-10-11T14:56:03.069Z,52.40
2018-10-11T14:58:32.500Z,52.80
2018-10-11T15:01:01.756Z,52.90
2018-10-11T15:03:30.930Z,53.30
2018-10-11T15:06:00.093Z,53.60
2018-10-11T15:08:31.806Z,53.80
2018-10-11T15:11:03.268Z,54.00
2018-10-11T15:13:32.736Z,54.90
2018-10-11T15:16:02.030Z,55.00
2018-10-11T15:18:31.322Z,54.70
2018-10-11T15:21:00.587Z,55.30
2018-10-11T15:23:29.906Z,55.70
2018-10-11T15:25:59.130Z,56.10
2018-10-11T15:28:28.349Z,56.50
2018-10-11T15:30:57.713Z,57.00
2018-10-11T15:33:26.935Z,57.50
2018-10-11T15:35:56.486Z,58.20
2018-10-11T15:38:25.663Z,58.10
2018-10-11T15:40:54.957Z,58.10
2018-10-11T15:43:24.139Z,58.40
2018-10-11T15:45:53.513Z,58.20
2018-10-11T15:48:22.718Z,58.50
2018-10-11T15:50:51.814Z,58.70
2018-10-11T15:53:20.898Z,58.70
2018-10-11T15:55:50.097Z,58.70
2018-10-11T15:58:19.436Z,58.80
2018-10-11T16:00:48.646Z,58.60
2018-10-11T16:03:17.894Z,58.60
2018-10-11T16:05:47.157Z,58.60
2018-10-11T16:08:16.397Z,58.50
2018-10-11T16:10:45.669Z,59.60
2018-10-11T16:13:14.927Z,59.10
2018-10-11T16:15:44.207Z,59.30
2018-10-11T16:18:13.295Z,59.50
2018-10-11T16:20:42.509Z,59.80
2018-10-11T16:23:11.599Z,59.90
2018-10-11T16:25:40.772Z,60.10
2018-10-11T16:28:10.059Z,60.50
2018-10-11T16:30:39.352Z,60.70
2018-10-11T16:33:08.582Z,61.10
2018-10-11T16:35:37.811Z,61.30
2018-10-11T16:38:06.910Z,61.40
2018-10-11T16:40:36.161Z,61.80
2018-10-11T16:43:05.346Z,62.10
2018-10-11T16:45:34.491Z,62.60
2018-10-11T16:48:03.844Z,62.90
2018-10-11T16:50:33.178Z,63.10
2018-10-11T16:53:02.662Z,63.20
2018-10-11T16:55:31.891Z,63.50
2018-10-11T16:58:01.102Z,63.80
2018-10-11T17:00:30.476Z,64.00
2018-10-11T17:02:59.662Z,64.30
2018-10-11T17:05:28.829Z,64.50
2018-10-11T17:07:58.462Z,64.30
2018-10-11T17:10:27.691Z,64.70
2018-10-11T17:12:57.048Z,64.60
2018-10-11T17:15:26.236Z,64.90
2018-10-11T17:17:55.413Z,64.80
2018-10-11T17:20:24.700Z,65.10
2018-10-11T17:22:53.897Z,65.40
2018-10-11T17:25:23.182Z,65.70
2018-10-11T17:27:52.374Z,65.70
2018-10-11T17:30:21.564Z,65.90
2018-10-11T17:32:50.833Z,66.30
2018-10-11T17:35:19.993Z,66.40
2018-10-11T17:37:49.173Z,66.70
2018-10-11T17:40:18.449Z,67.10
2018-10-11T17:42:47.678Z,67.20
2018-10-11T17:45:17.153Z,67.60
2018-10-11T17:47:46.475Z,67.80
2018-10-11T17:50:15.742Z,68.00
2018-10-11T17:52:45.024Z,68.40
2018-10-11T17:55:14.238Z,69.00
2018-10-11T17:57:43.490Z,69.40
2018-10-11T18:00:12.689Z,69.80
2018-10-11T18:02:41.850Z,70.10
2018-10-11T18:05:11.186Z,70.30
2018-10-11T18:07:40.458Z,70.60
2018-10-11T18:10:09.820Z,71.00
2018-10-11T18:12:38.974Z,71.50
2018-10-11T18:15:08.227Z,71.60
2018-10-11T18:17:38.586Z,71.90
2018-10-11T18:20:07.962Z,71.90
2018-10-11T18:22:37.181Z,72.40
2018-10-11T18:25:06.406Z,72.80
2018-10-11T18:27:35.658Z,73.20
2018-10-11T18:30:05.093Z,73.40
2018-10-11T18:32:34.363Z,73.80
2018-10-11T18:35:03.679Z,74.50
2018-10-11T18:37:34.579Z,74.60
2018-10-11T18:40:04.346Z,74.80
2018-10-11T18:42:33.532Z,75.20
2018-10-11T18:45:03.265Z,76.40
2018-10-11T18:47:32.549Z,76.20
2018-10-11T18:50:01.859Z,76.70
2018-10-11T18:52:40.422Z,76.70
2018-10-11T18:55:09.696Z,77.10
2018-10-11T18:57:39.006Z,77.20
2018-10-11T19:00:08.493Z,77.50
2018-10-11T19:02:37.730Z,78.00
2018-10-11T19:05:07.158Z,78.30
2018-10-11T19:07:36.472Z,79.20
2018-10-11T19:10:06.167Z,79.50
2018-10-11T19:12:35.515Z,79.60
2018-10-11T19:15:05.117Z,80.30
2018-10-11T19:17:34.322Z,81.10
2018-10-11T19:20:03.736Z,81.50
2018-10-11T19:22:32.993Z,81.50
2018-10-11T19:25:02.458Z,82.10
2018-10-11T19:27:31.721Z,82.50
2018-10-11T19:30:00.982Z,83.10
2018-10-11T19:32:30.269Z,83.60
2018-10-11T19:34:59.495Z,84.30
2018-10-11T19:37:28.798Z,84.60
2018-10-11T19:39:57.986Z,85.10
2018-10-11T19:42:27.346Z,85.60
2018-10-11T19:44:56.658Z,86.20
2018-10-11T19:47:26.006Z,86.80
2018-10-11T19:49:56.403Z,87.40
2018-10-11T19:52:25.695Z,88.10
2018-10-11T19:54:54.979Z,89.00
2018-10-11T19:57:24.223Z,89.60
2018-10-11T19:59:53.478Z,90.20
2018-10-11T20:02:22.696Z,90.50
2018-10-11T20:04:51.973Z,90.90
2018-10-11T20:07:21.213Z,91.30
2018-10-11T20:09:50.418Z,91.80
2018-10-11T20:12:19.710Z,92.00
2018-10-11T20:14:48.938Z,92.40
2018-10-11T20:17:18.230Z,92.90
2018-10-11T20:19:47.498Z,93.30
2018-10-11T20:22:16.678Z,93.60
2018-10-11T20:24:45.875Z,93.90
2018-10-11T20:27:15.102Z,94.10
2018-10-11T20:29:44.330Z,94.40
2018-10-11T20:32:13.669Z,94.70
2018-10-11T20:34:42.769Z,95.00
2018-10-11T20:37:11.919Z,95.30
2018-10-11T20:39:41.211Z,95.50
2018-10-11T20:42:10.463Z,95.70
2018-10-11T20:44:39.734Z,95.90
2018-10-11T20:47:08.966Z,96.30
2018-10-11T20:49:38.305Z,96.80
2018-10-11T20:52:07.686Z,97.10
2018-10-11T20:54:36.853Z,97.10
2018-10-11T20:57:06.059Z,97.40
2018-10-11T20:59:36.202Z,97.70
2018-10-11T21:02:05.368Z,97.90
2018-10-11T21:04:34.609Z,98.10
2018-10-11T21:07:03.801Z,98.40
2018-10-11T21:09:33.029Z,98.70
2018-10-11T21:12:02.213Z,99.20
2018-10-11T21:14:31.491Z,99.20
2018-10-11T21:17:01.809Z,99.40
2018-10-11T21:19:31.111Z,99.50
2018-10-11T21:22:00.415Z,99.90
2018-10-11T21:24:29.670Z,99.90
2018-10-11T21:26:58.917Z,99.90
2018-10-11T21:29:28.146Z,99.90
2018-10-11T21:31:57.372Z,99.90
2018-10-11T21:34:27.590Z,99.90
2018-10-11T21:36:56.847Z,99.90
2018-10-11T21:39:26.067Z,99.90
2018-10-11T21:41:55.317Z,99.90
2018-10-11T21:44:24.373Z,99.90
2018-10-11T21:46:53.634Z,99.90
2018-10-11T21:49:22.869Z,99.90
2018-10-11T21:51:52.037Z,99.90
2018-10-11T21:54:21.159Z,99.90
2018-10-11T21:56:51.249Z,99.90
2018-10-11T21:59:20.367Z,99.90
2018-10-11T22:01:49.576Z,99.90
2018-10-11T22:04:18.717Z,99.90
2018-10-11T22:06:47.869Z,99.90
2018-10-11T22:09:17.053Z,99.90
2018-10-11T22:11:46.266Z,99.90
2018-10-11T22:14:15.513Z,99.90
2018-10-11T22:16:44.806Z,99.90
2018-10-11T22:19:14.082Z,99.90
2018-10-11T22:21:43.322Z,99.90
2018-10-11T22:24:12.540Z,99.90
2018-10-11T22:26:41.665Z,99.90
2018-10-11T22:29:10.981Z,99.90
2018-10-11T22:31:40.544Z,99.90
2018-10-11T22:34:09.783Z,99.90
2018-10-11T22:36:39.046Z,99.90
2018-10-11T22:39:10.546Z,99.90
2018-10-11T22:41:40.018Z,99.90
2018-10-11T22:44:10.029Z,99.90
2018-10-11T22:46:39.543Z,99.90
2018-10-11T22:49:09.254Z,99.90
2018-10-11T22:51:38.654Z,99.90
2018-10-11T22:54:08.662Z,99.90
2018-10-11T22:56:38.018Z,99.90
2018-10-11T22:59:07.365Z,99.90
2018-10-11T23:01:36.546Z,99.90
2018-10-11T23:04:05.806Z,99.90
2018-10-11T23:06:35.661Z,99.90
2018-10-11T23:09:05.746Z,99.90
2018-10-11T23:11:34.953Z,99.90
2018-10-11T23:14:04.170Z,99.90
2018-10-11T23:16:33.268Z,99.90
2018-10-11T23:19:02.338Z,99.90
2018-10-11T23:21:31.558Z,99.90
2018-10-11T23:24:00.705Z,99.90
2018-10-11T23:26:29.901Z,99.90
2018-10-11T23:28:59.048Z,99.90
2018-10-11T23:31:28.201Z,99.90
2018-10-11T23:33:57.274Z,99.90
2018-10-11T23:36:26.429Z,99.90
2018-10-11T23:38:55.669Z,99.90
2018-10-11T23:41:24.746Z,99.90
2018-10-11T23:43:53.938Z,99.90
2018-10-11T23:46:23.323Z,99.90
2018-10-11T23:48:52.483Z,99.90
2018-10-11T23:51:21.621Z,99.90
2018-10-11T23:53:50.934Z,99.90
2018-10-11T23:56:20.093Z,99.90
2018-10-11T23:58:49.285Z,99.90
